Time;durP1;ratioP1;P1;durP2;ratioP2;P2;SDS_P1;SDS_P2;PMS_P1;PMS_P2;Temp;Humidity;BMP_temperature;BMP_pressure;BME280_temperature;BME280_humidity;BME280_pressure;Samples;Min_cycle;Max_cycle;Signal;HPM_P1;HPM_P2
2022/12/07 00:01:46;;;;;;;8.60;7.75;;;4.60;1.00;;;;;;5089111;28;20489;-79
2022/12/07 00:04:16;;;;;;;7.43;6.73;;;4.60;1.00;;;;;;5093621;28;20230;-79
2022/12/07 00:06:46;;;;;;;7.70;6.93;;;4.70;1.00;;;;;;5091302;27;20450;-79
2022/12/07 00:09:17;;;;;;;10.18;7.43;;;4.70;1.00;;;;;;5085779;28;20291;-80
2022/12/07 00:11:48;;;;;;;9.82;8.05;;;4.60;1.00;;;;;;5087373;28;20218;-79
2022/12/07 00:14:17;;;;;;;7.78;7.07;;;4.70;1.00;;;;;;5092156;27;20206;-80
2022/12/07 00:16:46;;;;;;;6.72;6.22;;;4.70;1.00;;;;;;5097105;27;20195;-78
2022/12/07 00:19:15;;;;;;;7.10;6.40;;;4.70;1.00;;;;;;5093537;28;20322;-79
2022/12/07 00:21:43;;;;;;;7.20;6.60;;;4.80;1.00;;;;;;5092054;28;20624;-80
2022/12/07 00:24:12;;;;;;;8.05;7.25;;;4.70;1.00;;;;;;5094398;27;20200;-80
2022/12/07 00:26:43;;;;;;;7.35;6.75;;;4.80;1.00;;;;;;5094009;28;20295;-80
2022/12/07 00:29:16;;;;;;;8.23;7.43;;;4.70;1.00;;;;;;5095272;28;20216;-79
2022/12/07 00:31:44;;;;;;;9.55;7.55;;;4.70;1.00;;;;;;5095994;28;20226;-81
2022/12/07 00:34:15;;;;;;;8.15;7.45;;;4.70;1.00;;;;;;5089414;28;20209;-79
2022/12/07 00:36:43;;;;;;;8.60;7.78;;;4.70;1.00;;;;;;5093574;27;20202;-80
2022/12/07 00:39:12;;;;;;;7.75;6.95;;;4.70;1.00;;;;;;5092084;28;20202;-80
2022/12/07 00:41:41;;;;;;;7.70;7.00;;;4.70;1.00;;;;;;5096253;28;20225;-80
2022/12/07 00:44:09;;;;;;;8.57;7.73;;;4.70;1.00;;;;;;5096189;28;20191;-80
2022/12/07 00:46:38;;;;;;;10.45;7.65;;;4.70;1.00;;;;;;5100814;27;20449;-81
2022/12/07 00:49:06;;;;;;;7.53;6.70;;;4.70;1.00;;;;;;5091734;28;20407;-78
2022/12/07 00:51:34;;;;;;;8.07;7.38;;;4.60;1.00;;;;;;5099079;28;20787;-80
2022/12/07 00:54:03;;;;;;;11.85;8.88;;;4.70;1.00;;;;;;5095278;28;20206;-80
2022/12/07 00:56:31;;;;;;;9.15;8.02;;;4.80;1.00;;;;;;5097617;28;20468;-80
2022/12/07 00:59:03;;;;;;;9.73;8.60;;;4.70;1.00;;;;;;5104063;27;20627;-81
2022/12/07 01:01:33;;;;;;;8.15;7.45;;;4.60;1.00;;;;;;5088516;28;20554;-79
2022/12/07 01:04:02;;;;;;;9.37;8.47;;;4.70;1.00;;;;;;5090782;28;20192;-80
2022/12/07 01:06:31;;;;;;;8.23;7.55;;;4.60;1.00;;;;;;5091893;28;20484;-81
2022/12/07 01:09:00;;;;;;;8.10;7.40;;;4.70;1.00;;;;;;5089853;28;20191;-79
2022/12/07 01:11:30;;;;;;;9.68;8.70;;;4.70;1.00;;;;;;5091255;28;20215;-80
2022/12/07 01:14:00;;;;;;;8.20;7.40;;;4.70;1.00;;;;;;5096516;28;20261;-79
2022/12/07 01:16:30;;;;;;;8.82;7.97;;;4.70;1.00;;;;;;5094004;28;20449;-80
2022/12/07 01:19:00;;;;;;;8.45;7.65;;;4.70;1.00;;;;;;5089907;28;20654;-80
2022/12/07 01:21:30;;;;;;;9.80;8.80;;;4.70;1.00;;;;;;5088705;28;20230;-79
2022/12/07 01:23:58;;;;;;;8.05;7.25;;;4.60;1.00;;;;;;5091817;27;20596;-79
2022/12/07 01:26:27;;;;;;;7.82;7.22;;;4.70;1.00;;;;;;5096126;28;20230;-78
2022/12/07 01:28:58;;;;;;;9.63;8.80;;;4.60;1.00;;;;;;5091855;27;20200;-80
2022/12/07 01:31:29;;;;;;;9.70;8.10;;;4.60;1.00;;;;;;5092557;27;20591;-79
2022/12/07 01:33:59;;;;;;;11.65;9.50;;;4.80;1.00;;;;;;5098648;28;20203;-80
2022/12/07 01:36:29;;;;;;;8.68;7.60;;;4.70;99.90;;;;;;5092043;27;20196;-79
2022/12/07 01:38:59;;;;;;;8.52;7.70;;;4.70;99.90;;;;;;5093369;27;20694;-79
2022/12/07 01:41:33;;;;;;;10.17;9.10;;;4.70;99.90;;;;;;5087923;27;20227;-80
2022/12/07 01:44:17;;;;;;;8.60;7.80;;;4.70;99.90;;;;;;5089689;28;21022;-81
2022/12/07 01:46:49;;;;;;;9.88;8.85;;;4.70;99.90;;;;;;5091199;28;20203;-81
2022/12/07 01:49:25;;;;;;;10.32;8.80;;;4.70;99.90;;;;;;5097232;27;20204;-80
2022/12/07 01:51:59;;;;;;;10.40;9.07;;;4.70;99.90;;;;;;5094859;28;20199;-80
2022/12/07 01:54:27;;;;;;;9.55;8.57;;;4.70;99.90;;;;;;5095714;28;20256;-80
2022/12/07 01:56:58;;;;;;;9.30;8.27;;;4.70;99.90;;;;;;5093256;28;20212;-80
2022/12/07 01:59:27;;;;;;;9.30;8.00;;;4.70;99.90;;;;;;5098017;27;20858;-80
2022/12/07 02:01:57;;;;;;;8.50;7.70;;;4.60;99.90;;;;;;5100665;27;20210;-79
2022/12/07 02:04:26;;;;;;;8.98;8.10;;;4.60;99.90;;;;;;5099613;27;20200;-80
2022/12/07 02:06:55;;;;;;;10.65;8.68;;;4.60;99.90;;;;;;5096926;28;20211;-81
2022/12/07 02:09:23;;;;;;;9.30;8.40;;;4.50;99.90;;;;;;5099672;28;20215;-80
2022/12/07 02:11:53;;;;;;;9.60;8.20;;;4.50;99.90;;;;;;5099118;28;20202;-80
2022/12/07 02:14:21;;;;;;;11.45;8.93;;;4.50;99.90;;;;;;5096203;27;20462;-80
2022/12/07 02:17:04;;;;;;;8.70;7.88;;;4.50;99.90;;;;;;5099162;27;20203;-80
2022/12/07 02:20:14;;;;;;;9.88;8.88;;;4.50;99.90;;;;;;5099644;28;20195;-80
2022/12/07 02:23:14;;;;;;;8.48;7.65;;;4.50;99.90;;;;;;5095300;28;20187;-79
2022/12/07 02:26:02;;;;;;;8.68;7.88;;;4.40;99.90;;;;;;5095360;28;20194;-81
2022/12/07 02:28:34;;;;;;;9.40;8.55;;;4.40;99.90;;;;;;5097109;27;20196;-80
2022/12/07 02:31:10;;;;;;;8.60;7.80;;;4.40;99.90;;;;;;5093119;27;20222;-80
2022/12/07 02:33:44;;;;;;;8.43;7.53;;;4.40;99.90;;;;;;5093882;27;20272;-80
2022/12/07 02:36:18;;;;;;;9.17;8.27;;;4.40;99.90;;;;;;5097857;27;20202;-81
2022/12/07 02:38:53;;;;;;;8.93;8.02;;;4.40;99.90;;;;;;5095337;28;20463;-81
2022/12/07 02:41:26;;;;;;;10.55;9.43;;;4.30;99.90;;;;;;5092122;28;20203;-80
2022/12/07 02:43:57;;;;;;;9.15;8.15;;;4.40;99.90;;;;;;5090581;28;20198;-80
2022/12/07 02:46:30;;;;;;;9.63;8.57;;;4.30;99.90;;;;;;5099891;27;20192;-81
2022/12/07 02:49:00;;;;;;;7.72;7.03;;;4.40;99.90;;;;;;5096584;28;20301;-79
2022/12/07 02:51:31;;;;;;;8.07;7.38;;;4.40;99.90;;;;;;5095168;27;20925;-81
2022/12/07 02:54:00;;;;;;;7.00;6.40;;;4.40;99.90;;;;;;5095193;28;20214;-79
2022/12/07 02:56:38;;;;;;;8.10;7.30;;;4.40;99.90;;;;;;5093520;28;20195;-80
2022/12/07 02:59:16;;;;;;;7.88;7.20;;;4.40;99.90;;;;;;5093234;28;20276;-81
2022/12/07 03:01:58;;;;;;;7.90;7.20;;;4.40;99.90;;;;;;5094098;28;20219;-81
2022/12/07 03:04:40;;;;;;;8.27;7.47;;;4.30;99.90;;;;;;5091573;28;20196;-79
2022/12/07 03:07:19;;;;;;;7.85;7.05;;;4.40;99.90;;;;;;5096648;28;20200;-80
2022/12/07 03:09:55;;;;;;;8.38;6.95;;;4.40;99.90;;;;;;5095195;28;20232;-81
2022/12/07 03:12:31;;;;;;;7.45;6.75;;;4.40;99.90;;;;;;5092200;28;20922;-81
2022/12/07 03:15:04;;;;;;;8.50;7.35;;;4.30;99.90;;;;;;5088700;28;20565;-82
2022/12/07 03:17:38;;;;;;;9.70;8.05;;;4.40;99.90;;;;;;5092691;27;20195;-81
2022/12/07 03:20:12;;;;;;;7.70;7.00;;;4.40;99.90;;;;;;5094699;27;20218;-80
2022/12/07 03:22:44;;;;;;;8.05;7.35;;;4.40;99.90;;;;;;5095015;28;20207;-80
2022/12/07 03:25:16;;;;;;;9.07;7.57;;;4.40;64.10;;;;;;5096116;28;20251;-81
2022/12/07 03:27:50;;;;;;;9.55;6.97;;;4.30;99.90;;;;;;5094328;28;20191;-81
2022/12/07 03:30:20;;;;;;;8.05;7.32;;;4.30;99.90;;;;;;5090919;28;20230;-81
2022/12/07 03:32:54;;;;;;;8.73;7.82;;;4.40;99.90;;;;;;5091450;28;20223;-80
2022/12/07 03:35:27;;;;;;;10.93;9.88;;;4.40;99.90;;;;;;5094668;28;20571;-82
2022/12/07 03:38:00;;;;;;;9.82;8.70;;;4.40;99.90;;;;;;5095586;28;20237;-80
2022/12/07 03:40:35;;;;;;;7.50;6.80;;;4.50;99.90;;;;;;5097906;27;20776;-81
2022/12/07 03:43:05;;;;;;;8.05;7.32;;;4.40;99.90;;;;;;5091304;28;20202;-81
2022/12/07 03:45:40;;;;;;;8.35;7.55;;;4.40;99.90;;;;;;5096161;28;20199;-81
2022/12/07 03:48:20;;;;;;;8.07;7.28;;;4.30;99.90;;;;;;5090978;27;20539;-80
2022/12/07 03:50:54;;;;;;;9.00;8.10;;;4.40;99.90;;;;;;5092291;28;20219;-80
2022/12/07 03:53:30;;;;;;;9.30;7.80;;;4.40;99.90;;;;;;5092841;28;20191;-81
2022/12/07 03:56:00;;;;;;;8.60;7.70;;;4.40;99.90;;;;;;5095233;27;20195;-81
2022/12/07 03:58:28;;;;;;;9.73;7.95;;;4.30;99.90;;;;;;5099923;27;20248;-80
2022/12/07 04:00:57;;;;;;;9.18;7.88;;;4.30;99.90;;;;;;5098068;27;20222;-82
2022/12/07 04:03:26;;;;;;;7.90;7.20;;;4.30;99.90;;;;;;5093158;28;20198;-81
2022/12/07 04:05:55;;;;;;;8.80;8.00;;;4.30;99.90;;;;;;5094355;28;20666;-81
2022/12/07 04:08:23;;;;;;;8.30;7.47;;;4.30;99.90;;;;;;5096965;28;20188;-80
2022/12/07 04:10:52;;;;;;;8.23;7.43;;;4.30;99.90;;;;;;5094217;28;20714;-82
2022/12/07 04:13:20;;;;;;;8.82;8.00;;;4.30;99.90;;;;;;5093543;28;20200;-80
2022/12/07 04:15:48;;;;;;;8.75;8.05;;;4.30;99.90;;;;;;5087489;27;20222;-80
2022/12/07 04:18:16;;;;;;;8.07;7.30;;;4.30;99.90;;;;;;5095083;27;20208;-81
2022/12/07 04:20:47;;;;;;;8.38;7.35;;;4.30;99.90;;;;;;5092901;28;20230;-80
2022/12/07 04:23:15;;;;;;;8.00;7.20;;;4.30;99.90;;;;;;5093064;27;20187;-81
2022/12/07 04:25:43;;;;;;;7.85;7.22;;;4.30;1.00;;;;;;5088438;28;20215;-79
2022/12/07 04:28:12;;;;;;;6.82;6.20;;;4.30;1.00;;;;;;5093491;28;20199;-80
2022/12/07 04:30:40;;;;;;;7.72;6.93;;;4.40;86.20;;;;;;5096424;28;20230;-80
2022/12/07 04:33:08;;;;;;;7.90;7.15;;;4.40;1.00;;;;;;5094944;28;20207;-80
2022/12/07 04:35:36;;;;;;;8.32;7.53;;;4.40;71.80;;;;;;5093753;28;20269;-79
2022/12/07 04:38:06;;;;;;;7.60;6.50;;;4.40;99.90;;;;;;5098081;28;20271;-79
2022/12/07 04:40:34;;;;;;;7.35;6.65;;;4.40;99.90;;;;;;5094223;28;20223;-79
2022/12/07 04:43:02;;;;;;;7.18;6.57;;;4.30;1.00;;;;;;5092357;28;20552;-80
2022/12/07 04:45:30;;;;;;;7.40;6.70;;;4.30;1.00;;;;;;5095281;28;20191;-79
2022/12/07 04:47:59;;;;;;;7.18;6.63;;;4.30;99.90;;;;;;5097848;28;20207;-79
2022/12/07 04:50:27;;;;;;;7.32;6.50;;;4.40;99.90;;;;;;5098053;28;20223;-80
2022/12/07 04:52:55;;;;;;;6.73;6.03;;;4.50;99.90;;;;;;5091536;28;20218;-80
2022/12/07 04:55:25;;;;;;;6.78;6.18;;;4.40;99.90;;;;;;5091799;28;20446;-80
2022/12/07 04:57:53;;;;;;;8.05;6.70;;;4.30;99.90;;;;;;5095118;28;20577;-80
2022/12/07 05:00:21;;;;;;;8.10;7.30;;;4.30;40.90;;;;;;5094959;28;20218;-79
2022/12/07 05:02:49;;;;;;;7.82;6.70;;;4.20;99.90;;;;;;5093941;28;20194;-79
2022/12/07 05:05:17;;;;;;;7.03;6.43;;;4.20;1.00;;;;;;5099197;27;20207;-80
2022/12/07 05:07:46;;;;;;;7.10;6.53;;;4.30;99.90;;;;;;5099668;27;20347;-79
2022/12/07 05:10:14;;;;;;;11.65;7.47;;;4.30;1.00;;;;;;5094769;28;20275;-78
2022/12/07 05:12:43;;;;;;;7.20;6.50;;;4.40;38.50;;;;;;5098935;28;20208;-79
2022/12/07 05:15:12;;;;;;;7.40;6.72;;;4.40;1.00;;;;;;5099184;28;20645;-79
2022/12/07 05:17:40;;;;;;;7.55;6.85;;;4.30;99.90;;;;;;5101511;28;20191;-79
2022/12/07 05:20:09;;;;;;;7.38;6.72;;;4.30;99.90;;;;;;5099980;27;20226;-80
2022/12/07 05:22:38;;;;;;;6.63;6.03;;;4.30;99.90;;;;;;5094947;27;20191;-80
2022/12/07 05:25:06;;;;;;;7.38;6.72;;;4.30;99.90;;;;;;5096734;27;20202;-79
2022/12/07 05:27:34;;;;;;;6.22;5.65;;;4.20;1.00;;;;;;5096686;27;20202;-80
2022/12/07 05:30:05;;;;;;;8.25;6.22;;;4.20;99.90;;;;;;5092592;27;20225;-78
2022/12/07 05:32:33;;;;;;;8.32;7.50;;;4.20;1.00;;;;;;5098365;27;20203;-80
2022/12/07 05:35:02;;;;;;;7.03;6.25;;;4.20;99.90;;;;;;5095227;28;20298;-81
2022/12/07 05:37:30;;;;;;;6.45;5.95;;;4.00;99.90;;;;;;5100479;28;20206;-78
2022/12/07 05:39:58;;;;;;;6.60;5.90;;;4.20;99.90;;;;;;5102354;27;20295;-81
2022/12/07 05:42:27;;;;;;;6.85;6.30;;;4.00;1.00;;;;;;5094422;28;20756;-79
2022/12/07 05:44:55;;;;;;;6.93;6.30;;;3.70;99.90;;;;;;5090926;28;20188;-78
2022/12/07 05:47:25;;;;;;;7.22;6.60;;;3.70;99.90;;;;;;5098117;27;20566;-78
2022/12/07 05:49:53;;;;;;;9.88;7.75;;;3.60;1.00;;;;;;5092113;28;20219;-79
2022/12/07 05:52:22;;;;;;;7.10;6.40;;;3.50;99.90;;;;;;5097929;27;20215;-80
2022/12/07 05:54:50;;;;;;;6.53;6.03;;;3.50;1.00;;;;;;5091960;28;20695;-78
2022/12/07 05:57:18;;;;;;;6.78;6.18;;;3.50;99.90;;;;;;5094437;28;20210;-79
2022/12/07 05:59:45;;;;;;;7.53;6.82;;;3.50;1.00;;;;;;5094440;28;20217;-79
2022/12/07 06:02:15;;;;;;;9.75;7.78;;;3.50;99.90;;;;;;5095028;28;20206;-80
2022/12/07 06:04:46;;;;;;;6.28;5.68;;;3.50;99.90;;;;;;5098359;28;20209;-81
2022/12/07 06:07:16;;;;;;;6.32;5.82;;;3.50;99.90;;;;;;5099938;28;20202;-79
2022/12/07 06:09:45;;;;;;;6.28;5.65;;;3.50;1.00;;;;;;5098758;28;20198;-80
2022/12/07 06:15:00;;;;;;;7.60;6.50;;;3.60;99.90;;;;;;5095095;28;20528;-81
2022/12/07 06:17:29;;;;;;;6.35;5.80;;;3.50;99.90;;;;;;5092454;28;20201;-81
2022/12/07 06:19:58;;;;;;;6.80;6.18;;;3.50;99.90;;;;;;5092448;27;20226;-80
2022/12/07 06:22:27;;;;;;;6.40;5.90;;;3.60;99.90;;;;;;5094128;27;20194;-80
2022/12/07 06:24:56;;;;;;;12.35;6.65;;;3.60;99.90;;;;;;5079772;28;20196;-81
2022/12/07 06:27:24;;;;;;;5.57;5.15;;;3.60;1.00;;;;;;5090982;28;20210;-80
2022/12/07 06:29:52;;;;;;;7.20;5.32;;;3.70;1.00;;;;;;5088265;28;20225;-80
2022/12/07 06:32:20;;;;;;;7.40;5.85;;;3.80;1.00;;;;;;5091096;28;20686;-81
2022/12/07 06:34:49;;;;;;;6.30;5.70;;;3.70;36.30;;;;;;5089754;28;20674;-82
2022/12/07 06:37:19;;;;;;;6.28;5.57;;;3.70;99.90;;;;;;5089283;28;21203;-80
2022/12/07 06:39:47;;;;;;;6.07;5.55;;;3.70;99.90;;;;;;5091933;28;22505;-81
2022/12/07 06:42:15;;;;;;;6.60;5.95;;;3.70;99.90;;;;;;5093384;28;20654;-81
2022/12/07 06:44:44;;;;;;;7.70;6.60;;;3.70;27.00;;;;;;5095392;28;20211;-81
2022/12/07 06:47:12;;;;;;;7.05;6.28;;;3.80;1.00;;;;;;5096390;28;20196;-81
2022/12/07 06:50:01;;;;;;;5.85;5.25;;;3.70;1.00;;;;;;5095667;27;20227;-81
2022/12/07 06:52:31;;;;;;;7.50;6.40;;;3.80;1.00;;;;;;5084925;28;20219;-81
2022/12/07 06:55:00;;;;;;;8.60;6.90;;;3.80;99.90;;;;;;5097576;28;20196;-81
2022/12/07 06:57:29;;;;;;;7.55;6.80;;;3.80;1.00;;;;;;5110272;28;20255;-81
2022/12/07 06:59:57;;;;;;;8.68;6.90;;;3.80;96.80;;;;;;5090719;28;20237;-80
2022/12/07 07:02:25;;;;;;;7.32;6.63;;;3.80;99.90;;;;;;5093494;27;20193;-80
2022/12/07 07:04:54;;;;;;;10.23;7.00;;;3.90;1.00;;;;;;5084118;28;20202;-79
2022/12/07 07:07:22;;;;;;;10.25;8.40;;;3.90;1.00;;;;;;5089689;28;20745;-79
2022/12/07 07:09:52;;;;;;;8.65;7.07;;;3.90;99.90;;;;;;5088128;28;20223;-79
2022/12/07 07:12:20;;;;;;;8.30;7.35;;;3.90;99.90;;;;;;5088202;27;20204;-80
2022/12/07 07:14:48;;;;;;;8.90;7.18;;;3.90;67.10;;;;;;5084771;28;20718;-79
2022/12/07 07:17:17;;;;;;;10.55;8.90;;;4.00;1.00;;;;;;5090547;28;20284;-78
2022/12/07 07:19:45;;;;;;;9.85;8.32;;;4.00;99.90;;;;;;5087698;28;20206;-78
2022/12/07 07:22:13;;;;;;;8.50;7.80;;;3.90;1.00;;;;;;5094329;27;20217;-79
2022/12/07 07:24:42;;;;;;;7.32;6.55;;;3.80;1.00;;;;;;5092726;27;20911;-80
2022/12/07 07:27:11;;;;;;;8.70;7.80;;;3.90;99.90;;;;;;5091078;28;20195;-79
2022/12/07 07:29:40;;;;;;;9.00;8.05;;;4.00;1.00;;;;;;5093533;28;20203;-78
2022/12/07 07:32:08;;;;;;;8.18;6.82;;;3.90;99.90;;;;;;5091619;28;20200;-79
2022/12/07 07:34:36;;;;;;;6.90;6.30;;;3.90;85.00;;;;;;5092462;28;20293;-79
2022/12/07 07:37:05;;;;;;;8.57;7.70;;;3.90;99.90;;;;;;5096115;27;20209;-79
2022/12/07 07:39:34;;;;;;;8.73;6.70;;;3.90;1.00;;;;;;5086999;28;20693;-78
2022/12/07 07:42:02;;;;;;;7.55;6.88;;;4.00;99.90;;;;;;5089948;28;20198;-79
2022/12/07 07:44:32;;;;;;;9.27;6.40;;;4.10;99.90;;;;;;5084971;28;20194;-79
2022/12/07 07:47:03;;;;;;;5.32;4.80;;;4.00;99.90;;;;;;5094878;27;20324;-79
2022/12/07 07:49:31;;;;;;;7.60;6.30;;;3.90;1.00;;;;;;5087965;27;20209;-79
2022/12/07 07:51:59;;;;;;;8.95;8.25;;;3.90;99.90;;;;;;5089497;28;20204;-78
2022/12/07 07:54:28;;;;;;;6.88;6.28;;;3.80;1.00;;;;;;5088943;28;20665;-79
2022/12/07 07:56:56;;;;;;;7.53;6.50;;;3.80;1.00;;;;;;5091311;27;20203;-78
2022/12/07 07:59:25;;;;;;;6.82;6.13;;;3.90;99.90;;;;;;5086162;28;20224;-77
2022/12/07 08:01:54;;;;;;;6.53;5.82;;;4.00;1.00;;;;;;5089709;28;20229;-77
2022/12/07 08:04:23;;;;;;;6.30;5.68;;;4.10;99.90;;;;;;5088732;28;20213;-78
2022/12/07 08:06:52;;;;;;;7.22;6.18;;;4.10;1.00;;;;;;5092658;27;20286;-78
2022/12/07 08:09:21;;;;;;;7.03;6.35;;;4.00;99.90;;;;;;5089917;27;20205;-77
2022/12/07 08:11:50;;;;;;;10.27;6.47;;;4.00;99.90;;;;;;5089177;28;20224;-78
2022/12/07 08:14:18;;;;;;;9.35;5.55;;;3.90;99.90;;;;;;5090748;28;20215;-78
2022/12/07 08:16:47;;;;;;;6.85;6.25;;;4.00;1.00;;;;;;5088037;28;20238;-78
2022/12/07 08:19:16;;;;;;;7.78;5.50;;;4.10;99.90;;;;;;5086877;28;20208;-78
2022/12/07 08:21:45;;;;;;;6.20;5.60;;;4.10;1.00;;;;;;5094055;28;20218;-78
2022/12/07 08:24:13;;;;;;;6.18;5.60;;;4.10;99.90;;;;;;5091228;28;20744;-77
2022/12/07 08:26:42;;;;;;;5.63;5.13;;;4.10;99.90;;;;;;5090681;27;20194;-77
2022/12/07 08:29:10;;;;;;;6.10;5.50;;;4.20;99.90;;;;;;5094003;28;20439;-78
2022/12/07 08:31:40;;;;;;;5.45;4.95;;;4.30;99.90;;;;;;5091432;28;20296;-78
2022/12/07 08:34:11;;;;;;;6.05;5.55;;;4.30;1.00;;;;;;5093422;28;20679;-78
2022/12/07 08:36:41;;;;;;;5.50;4.97;;;4.30;1.00;;;;;;5084835;28;20707;-78
2022/12/07 08:39:10;;;;;;;6.10;5.32;;;4.30;1.00;;;;;;5085378;28;20200;-78
2022/12/07 08:41:58;;;;;;;5.35;4.95;;;4.20;1.00;;;;;;5086395;28;20397;-79
2022/12/07 08:44:27;;;;;;;5.47;4.97;;;4.20;1.00;;;;;;5093810;28;20458;-82
2022/12/07 08:46:59;;;;;;;8.02;5.47;;;4.30;1.00;;;;;;5085340;28;20275;-78
2022/12/07 08:49:32;;;;;;;5.38;4.88;;;4.40;1.00;;;;;;5092722;28;20207;-78
2022/12/07 08:52:04;;;;;;;5.53;5.13;;;4.30;1.00;;;;;;5084519;28;21451;-79
2022/12/07 08:54:37;;;;;;;7.15;5.45;;;4.30;1.00;;;;;;5081757;28;20215;-79
2022/12/07 08:57:06;;;;;;;5.43;4.93;;;4.30;1.00;;;;;;5080567;28;20687;-79
2022/12/07 08:59:37;;;;;;;5.88;5.35;;;4.40;1.00;;;;;;5090845;28;20198;-79
2022/12/07 09:02:06;;;;;;;8.35;5.80;;;4.50;99.90;;;;;;5089613;28;20601;-77
2022/12/07 09:04:35;;;;;;;7.10;6.38;;;4.50;99.90;;;;;;5089483;28;20198;-77
2022/12/07 09:07:05;;;;;;;4.97;4.55;;;4.50;1.00;;;;;;5088848;28;20291;-78
2022/12/07 09:09:34;;;;;;;5.20;4.70;;;4.50;1.00;;;;;;5095030;28;20223;-78
2022/12/07 09:12:02;;;;;;;4.95;4.50;;;4.60;1.00;;;;;;5089632;28;20195;-78
2022/12/07 09:14:31;;;;;;;6.55;5.47;;;4.70;99.90;;;;;;5091451;28;20608;-79
2022/12/07 09:17:07;;;;;;;6.70;5.00;;;4.70;99.90;;;;;;5090362;28;20199;-77
2022/12/07 09:19:35;;;;;;;8.07;5.20;;;4.70;99.90;;;;;;5078027;28;20207;-78
2022/12/07 09:22:06;;;;;;;6.75;6.00;;;4.70;99.90;;;;;;5083080;28;20211;-80
2022/12/07 09:24:34;;;;;;;5.43;4.57;;;4.90;99.90;;;;;;5092086;28;20200;-79
2022/12/07 09:27:02;;;;;;;4.70;4.18;;;4.80;86.00;;;;;;5095089;28;20203;-78
2022/12/07 09:29:31;;;;;;;4.85;4.45;;;4.80;99.90;;;;;;5095795;28;20204;-78
2022/12/07 09:31:59;;;;;;;5.80;4.80;;;4.80;46.40;;;;;;5087473;28;20204;-79
2022/12/07 09:34:32;;;;;;;4.80;4.40;;;4.70;37.60;;;;;;5080139;28;20827;-81
2022/12/07 09:37:03;;;;;;;5.07;4.67;;;4.80;99.90;;;;;;5104673;28;20240;-80
2022/12/07 09:39:33;;;;;;;4.20;3.90;;;4.90;75.00;;;;;;5093020;28;20451;-80
2022/12/07 09:42:05;;;;;;;4.53;4.18;;;5.00;92.20;;;;;;5091118;28;20465;-80
2022/12/07 09:44:34;;;;;;;4.47;4.00;;;5.00;34.70;;;;;;5091576;28;20187;-80
2022/12/07 09:47:03;;;;;;;5.43;4.97;;;5.00;26.50;;;;;;5094387;28;20683;-80
2022/12/07 09:49:33;;;;;;;4.93;4.53;;;5.00;99.90;;;;;;5094081;28;20469;-79
2022/12/07 09:52:04;;;;;;;5.00;4.50;;;5.10;1.00;;;;;;5090332;28;20636;-80
2022/12/07 09:54:37;;;;;;;4.82;4.43;;;5.00;36.60;;;;;;5090500;28;20480;-79
2022/12/07 09:57:06;;;;;;;5.47;4.20;;;4.90;99.90;;;;;;5093657;27;20290;-79
2022/12/07 09:59:34;;;;;;;4.97;4.43;;;5.00;34.70;;;;;;5102442;27;20445;-79
2022/12/07 10:02:32;;;;;;;4.93;4.37;;;5.10;1.00;;;;;;5091204;27;20200;-79
2022/12/07 10:05:01;;;;;;;4.97;4.30;;;5.20;17.10;;;;;;5097661;28;20437;-80
2022/12/07 10:07:31;;;;;;;5.65;4.78;;;5.20;1.00;;;;;;5097626;27;20462;-80
2022/12/07 10:10:02;;;;;;;4.73;4.33;;;5.20;1.00;;;;;;5096208;28;20219;-79
2022/12/07 10:12:30;;;;;;;5.47;4.47;;;5.10;1.00;;;;;;5094611;28;20453;-80
2022/12/07 10:15:02;;;;;;;4.40;4.00;;;5.20;32.70;;;;;;5089580;28;20492;-80
2022/12/07 10:17:40;;;;;;;4.25;3.95;;;5.40;1.00;;;;;;5094624;27;20535;-79
2022/12/07 10:20:23;;;;;;;6.40;4.70;;;5.40;1.00;;;;;;5087323;28;20223;-78
2022/12/07 10:23:00;;;;;;;4.63;4.23;;;5.50;1.00;;;;;;5080943;28;20204;-79
2022/12/07 10:25:33;;;;;;;3.70;3.40;;;5.60;1.00;;;;;;5094031;28;20455;-81
2022/12/07 10:28:11;;;;;;;4.30;3.90;;;5.60;1.00;;;;;;5088926;28;20207;-80
2022/12/07 10:30:52;;;;;;;5.20;4.80;;;5.60;1.00;;;;;;5094646;28;21026;-79
2022/12/07 10:33:32;;;;;;;5.00;4.60;;;5.50;1.00;;;;;;5081824;28;20485;-79
2022/12/07 10:36:01;;;;;;;5.35;4.65;;;5.40;1.00;;;;;;5095440;28;20572;-79
2022/12/07 10:38:32;;;;;;;4.60;4.20;;;5.30;1.00;;;;;;5084917;28;20203;-79
2022/12/07 10:41:08;;;;;;;6.40;4.70;;;5.40;1.00;;;;;;5087863;27;21149;-79
2022/12/07 10:43:36;;;;;;;5.30;4.80;;;5.50;1.00;;;;;;5084844;28;20278;-79
2022/12/07 10:46:43;;;;;;;4.87;3.70;;;5.40;1.00;;;;;;5089539;28;21519;-79
2022/12/07 10:49:39;;;;;;;5.30;4.80;;;5.50;1.00;;;;;;5096413;28;20544;-78
2022/12/07 10:52:19;;;;;;;4.60;3.87;;;5.40;1.00;;;;;;5056083;28;20518;-79
2022/12/07 10:55:03;;;;;;;4.47;4.07;;;5.50;1.00;;;;;;5087208;28;20481;-79
2022/12/07 10:57:43;;;;;;;5.65;5.05;;;5.50;1.00;;;;;;5093375;28;20203;-80
2022/12/07 11:00:18;;;;;;;4.30;3.87;;;5.50;20.70;;;;;;5092045;28;20219;-79
2022/12/07 11:03:21;;;;;;;5.90;4.75;;;5.40;1.00;;;;;;5084232;28;20445;-79
2022/12/07 11:05:57;;;;;;;5.73;4.47;;;5.40;1.00;;;;;;5088437;28;20655;-81
2022/12/07 11:08:46;;;;;;;5.05;4.32;;;5.50;26.30;;;;;;5088652;28;20480;-79
2022/12/07 11:11:19;;;;;;;6.15;4.35;;;5.60;99.90;;;;;;5094947;28;20215;-80
2022/12/07 11:13:57;;;;;;;5.87;5.30;;;5.70;50.70;;;;;;5089437;28;20572;-80
2022/12/07 11:16:35;;;;;;;4.80;4.40;;;5.70;50.80;;;;;;5088454;27;20549;-79
2022/12/07 11:19:28;;;;;;;5.13;4.67;;;5.70;1.00;;;;;;5092931;28;21271;-79
2022/12/07 11:21:59;;;;;;;4.73;4.27;;;5.70;50.50;;;;;;5085552;28;20483;-80
2022/12/07 11:24:33;;;;;;;5.10;4.60;;;5.70;99.90;;;;;;5098552;28;20459;-79
2022/12/07 11:27:14;;;;;;;5.37;4.50;;;5.80;56.60;;;;;;5096974;28;20890;-78
2022/12/07 11:29:54;;;;;;;4.40;4.00;;;5.80;66.90;;;;;;5096230;28;20461;-79
2022/12/07 11:32:39;;;;;;;5.60;4.73;;;5.80;30.50;;;;;;5087034;28;20199;-80
2022/12/07 11:35:16;;;;;;;4.67;4.30;;;5.70;51.20;;;;;;5085905;28;20453;-80
2022/12/07 11:37:45;;;;;;;5.00;4.60;;;5.70;99.90;;;;;;5090715;27;20464;-79
2022/12/07 11:40:21;;;;;;;4.20;3.70;;;5.70;99.90;;;;;;5088483;28;20577;-80
2022/12/07 11:42:58;;;;;;;5.22;4.82;;;5.70;76.20;;;;;;5095060;27;20200;-79
2022/12/07 11:45:31;;;;;;;4.63;4.32;;;5.60;99.90;;;;;;5095215;28;20659;-80
2022/12/07 11:48:03;;;;;;;4.27;4.00;;;5.70;99.90;;;;;;5095638;28;20231;-81
2022/12/07 11:50:39;;;;;;;4.90;4.50;;;5.70;99.90;;;;;;5091270;28;20483;-80
2022/12/07 11:53:15;;;;;;;5.03;4.57;;;5.50;99.90;;;;;;5092851;28;20445;-80
2022/12/07 11:55:51;;;;;;;5.07;4.68;;;5.50;99.90;;;;;;5096411;28;20206;-81
2022/12/07 11:58:41;;;;;;;4.80;4.30;;;5.70;99.90;;;;;;5091652;28;20217;-79
2022/12/07 12:01:22;;;;;;;4.60;4.17;;;5.70;99.90;;;;;;5093619;27;20460;-79
2022/12/07 12:03:53;;;;;;;4.97;4.47;;;5.60;99.90;;;;;;5094966;28;20467;-79
2022/12/07 12:06:22;;;;;;;5.60;4.67;;;5.60;99.90;;;;;;5098052;28;20948;-80
2022/12/07 12:08:57;;;;;;;4.20;3.80;;;5.50;99.90;;;;;;5092401;28;20547;-79
2022/12/07 12:12:08;;;;;;;5.40;4.70;;;5.50;99.90;;;;;;5086788;28;20481;-81
2022/12/07 12:15:14;;;;;;;6.83;5.10;;;5.60;99.90;;;;;;5091463;28;20211;-79
2022/12/07 12:18:06;;;;;;;4.33;4.03;;;5.60;99.90;;;;;;5088058;28;22542;-78
2022/12/07 12:20:42;;;;;;;5.93;4.95;;;5.50;99.90;;;;;;5087960;28;20497;-80
2022/12/07 12:23:16;;;;;;;5.10;4.70;;;5.60;99.90;;;;;;5091082;27;20678;-79
2022/12/07 12:25:47;;;;;;;4.82;4.32;;;5.50;99.90;;;;;;5085663;28;20538;-79
2022/12/07 12:28:24;;;;;;;5.00;4.60;;;5.50;99.90;;;;;;5090686;28;20245;-79
2022/12/07 12:31:08;;;;;;;6.20;5.70;;;5.50;99.90;;;;;;5094221;28;20453;-79
2022/12/07 12:33:39;;;;;;;6.20;5.23;;;5.50;1.00;;;;;;5087674;28;20207;-78
2022/12/07 12:36:45;;;;;;;9.63;6.03;;;5.50;1.00;;;;;;5084386;28;20482;-81
2022/12/07 12:39:16;;;;;;;6.22;5.63;;;5.60;1.00;;;;;;5085929;28;20979;-79
2022/12/07 12:42:07;;;;;;;4.47;4.28;;;5.60;41.30;;;;;;5099004;28;20448;-80
2022/12/07 12:45:05;;;;;;;4.57;4.30;;;5.50;99.90;;;;;;5090771;28;20187;-80
2022/12/07 12:47:59;;;;;;;3.80;3.60;;;5.60;1.00;;;;;;5082964;28;20476;-79
2022/12/07 12:50:31;;;;;;;4.87;4.10;;;5.70;99.90;;;;;;5075905;28;20488;-79
2022/12/07 12:53:20;;;;;;;4.00;3.80;;;5.80;1.00;;;;;;5083288;28;20456;-79
2022/12/07 12:56:30;;;;;;;4.13;3.87;;;5.80;99.90;;;;;;5087359;28;20480;-80
2022/12/07 12:59:25;;;;;;;3.93;3.70;;;5.70;99.90;;;;;;5080641;28;20496;-80
2022/12/07 13:01:56;;;;;;;3.45;3.25;;;5.70;99.90;;;;;;5093954;28;20474;-80
2022/12/07 13:04:40;;;;;;;3.37;3.10;;;5.70;99.90;;;;;;5088369;28;20441;-80
2022/12/07 13:07:48;;;;;;;3.30;3.10;;;5.70;99.90;;;;;;5082669;28;20441;-80
2022/12/07 13:10:32;;;;;;;4.35;3.95;;;5.60;99.90;;;;;;5089551;28;21132;-79
2022/12/07 13:13:03;;;;;;;4.63;4.00;;;5.70;99.90;;;;;;5092992;28;20604;-79
2022/12/07 13:15:37;;;;;;;5.70;3.57;;;5.70;99.90;;;;;;5092350;28;20469;-79
2022/12/07 13:18:24;;;;;;;4.80;3.60;;;5.70;99.90;;;;;;5090177;28;20453;-77
2022/12/07 13:20:55;;;;;;;3.97;3.67;;;5.70;28.60;;;;;;5096025;28;20554;-80
2022/12/07 13:23:31;;;;;;;5.17;4.17;;;5.70;50.30;;;;;;5092286;28;20452;-78
2022/12/07 13:26:16;;;;;;;3.90;3.60;;;5.70;99.90;;;;;;5090017;28;20510;-79
2022/12/07 13:28:47;;;;;;;5.43;4.50;;;5.80;99.90;;;;;;5094135;28;20538;-79
2022/12/07 13:31:33;;;;;;;6.87;4.20;;;5.80;99.90;;;;;;5100649;28;21073;-80
2022/12/07 13:34:03;;;;;;;4.95;4.63;;;5.80;99.90;;;;;;5095103;28;20448;-81